createdAt,value
2022-12-11T00:01:20.645Z,146.38
2022-12-11T00:03:48.831Z,166.18
2022-12-11T00:06:18.102Z,188.70
2022-12-11T00:08:45.534Z,222.48
2022-12-11T00:11:14.320Z,236.93
2022-12-11T00:13:42.207Z,190.82
2022-12-11T00:16:09.850Z,156.40
2022-12-11T00:18:37.783Z,149.32
2022-12-11T00:21:07.991Z,143.48
2022-12-11T00:23:36.155Z,127.28
2022-12-11T00:26:06.930Z,120.40
2022-12-11T00:28:34.607Z,125.75
2022-12-11T00:31:09.503Z,126.97
2022-12-11T00:33:36.895Z,110.80
2022-12-11T00:36:03.877Z,123.50
2022-12-11T00:38:31.225Z,111.68
2022-12-11T00:41:01.028Z,123.88
2022-12-11T00:43:28.288Z,118.95
2022-12-11T00:45:54.909Z,125.38
2022-12-11T00:48:22.403Z,119.97
2022-12-11T00:50:49.020Z,130.40
2022-12-11T00:53:16.485Z,125.53
2022-12-11T00:55:43.962Z,121.05
2022-12-11T00:58:12.188Z,119.70
2022-12-11T01:00:39.645Z,118.07
2022-12-11T01:03:07.346Z,120.53
2022-12-11T01:05:34.684Z,127.35
2022-12-11T01:08:02.066Z,137.90
2022-12-11T01:10:28.876Z,118.10
2022-12-11T01:13:15.705Z,124.38
2022-12-11T01:15:45.222Z,118.63
2022-12-11T01:18:14.578Z,125.78
2022-12-11T01:20:42.454Z,126.07
2022-12-11T01:23:11.594Z,137.45
2022-12-11T01:25:38.267Z,131.20
2022-12-11T01:28:06.371Z,136.73
2022-12-11T01:30:33.342Z,129.98
2022-12-11T01:33:00.864Z,142.30
2022-12-11T01:35:28.778Z,145.88
2022-12-11T01:37:55.819Z,139.43
2022-12-11T01:40:23.320Z,126.68
2022-12-11T01:42:50.131Z,141.82
2022-12-11T01:45:42.147Z,141.80
2022-12-11T01:48:12.347Z,144.13
2022-12-11T01:50:47.766Z,140.13
2022-12-11T01:53:19.787Z,134.13
2022-12-11T01:55:48.759Z,138.68
2022-12-11T01:58:16.783Z,146.05
2022-12-11T02:00:43.703Z,152.35
2022-12-11T02:03:10.802Z,142.27
2022-12-11T02:05:37.843Z,135.30
2022-12-11T02:08:06.997Z,139.23
2022-12-11T02:10:59.197Z,140.02
2022-12-11T02:13:43.668Z,131.93
2022-12-11T02:16:21.488Z,150.73
2022-12-11T02:19:08.009Z,131.15
2022-12-11T02:21:40.971Z,137.88
2022-12-11T02:24:14.329Z,150.32
2022-12-11T02:26:52.937Z,139.43
2022-12-11T02:29:30.857Z,131.35
2022-12-11T02:32:07.301Z,134.82
2022-12-11T02:34:54.382Z,140.85
2022-12-11T02:37:26.256Z,138.70
2022-12-11T02:39:55.718Z,134.80
2022-12-11T02:42:26.772Z,132.82
2022-12-11T02:44:57.210Z,121.75
2022-12-11T02:47:26.491Z,136.70
2022-12-11T02:49:56.019Z,136.73
2022-12-11T02:52:25.142Z,119.53
2022-12-11T02:54:55.462Z,121.68
2022-12-11T02:57:44.166Z,131.50
2022-12-11T03:00:13.015Z,120.07
2022-12-11T03:02:41.382Z,119.72
2022-12-11T03:05:11.588Z,125.80
2022-12-11T03:07:40.814Z,119.30
2022-12-11T03:10:11.129Z,118.05
2022-12-11T03:12:40.230Z,109.22
2022-12-11T03:15:11.867Z,106.13
2022-12-11T03:17:56.387Z,112.45
2022-12-11T03:20:33.702Z,103.35
2022-12-11T03:23:23.891Z,96.75
2022-12-11T03:26:03.774Z,94.82
2022-12-11T03:28:47.567Z,100.50
2022-12-11T03:31:22.579Z,96.45
2022-12-11T03:33:53.455Z,101.53
2022-12-11T03:36:34.597Z,93.07
2022-12-11T03:39:10.778Z,89.05
2022-12-11T03:41:40.012Z,91.20
2022-12-11T03:44:08.652Z,89.65
2022-12-11T03:46:39.968Z,88.40
2022-12-11T03:49:17.147Z,89.63
2022-12-11T03:51:46.674Z,87.43
2022-12-11T03:54:13.780Z,86.72
2022-12-11T03:56:42.728Z,92.13
2022-12-11T03:59:09.593Z,93.60
2022-12-11T04:01:37.011Z,88.97
2022-12-11T04:04:04.043Z,87.90
2022-12-11T04:06:31.389Z,93.25
2022-12-11T04:08:57.965Z,98.00
2022-12-11T04:11:37.112Z,90.07
2022-12-11T04:14:33.130Z,96.43
2022-12-11T04:17:01.344Z,93.00
2022-12-11T04:19:46.728Z,100.80
2022-12-11T04:22:35.166Z,106.22
2022-12-11T04:25:03.129Z,95.32
2022-12-11T04:27:49.138Z,95.28
2022-12-11T04:30:19.503Z,96.63
2022-12-11T04:32:46.931Z,99.95
2022-12-11T04:35:14.331Z,97.10
2022-12-11T04:37:42.003Z,96.32
2022-12-11T04:40:11.995Z,107.60
2022-12-11T04:42:39.335Z,102.38
2022-12-11T04:45:08.157Z,100.72
2022-12-11T04:47:36.463Z,104.35
2022-12-11T04:50:05.087Z,115.10
2022-12-11T04:52:32.509Z,104.45
2022-12-11T04:54:59.137Z,110.80
2022-12-11T04:57:26.352Z,101.93
2022-12-11T04:59:52.916Z,105.95
2022-12-11T05:02:20.248Z,107.18
2022-12-11T05:04:46.900Z,109.13
2022-12-11T05:07:14.512Z,113.72
2022-12-11T05:09:41.128Z,112.88
2022-12-11T05:12:08.372Z,113.72
2022-12-11T05:14:34.955Z,110.50
2022-12-11T05:17:02.185Z,108.15
2022-12-11T05:19:28.923Z,108.80
2022-12-11T05:21:56.212Z,108.05
2022-12-11T05:24:22.809Z,102.82
2022-12-11T05:26:50.146Z,102.63
2022-12-11T05:29:16.769Z,108.25
2022-12-11T05:31:44.081Z,105.60
2022-12-11T05:34:10.766Z,101.82
2022-12-11T05:36:37.758Z,104.07
2022-12-11T05:39:05.119Z,99.90
2022-12-11T05:41:32.641Z,100.20
2022-12-11T05:44:00.534Z,98.88
2022-12-11T05:46:29.352Z,96.07
2022-12-11T05:48:59.660Z,98.95
2022-12-11T05:51:28.295Z,98.22
2022-12-11T05:53:56.758Z,106.03
2022-12-11T05:56:30.995Z,92.95
2022-12-11T05:58:58.537Z,105.13
2022-12-11T06:01:28.728Z,103.10
2022-12-11T06:03:57.041Z,103.13
2022-12-11T06:06:24.800Z,93.60
2022-12-11T06:08:53.565Z,97.95
2022-12-11T06:11:24.095Z,96.15
2022-12-11T06:13:53.035Z,100.90
2022-12-11T06:16:20.843Z,91.10
2022-12-11T06:18:48.544Z,99.85
2022-12-11T06:21:18.164Z,96.32
2022-12-11T06:23:47.085Z,93.43
2022-12-11T06:26:15.256Z,97.10
2022-12-11T06:28:42.285Z,87.15
2022-12-11T06:31:09.007Z,96.45
2022-12-11T06:33:36.691Z,89.90
2022-12-11T06:36:12.414Z,105.07
2022-12-11T06:38:39.833Z,96.13
2022-12-11T06:41:07.652Z,102.25
2022-12-11T06:43:37.326Z,90.53
2022-12-11T06:46:06.010Z,90.95
2022-12-11T06:48:34.184Z,93.20
2022-12-11T06:51:05.565Z,95.75
2022-12-11T06:53:32.810Z,82.60
2022-12-11T06:56:10.542Z,84.32
2022-12-11T06:58:38.652Z,87.13
2022-12-11T07:01:13.270Z,86.28
2022-12-11T07:03:40.589Z,87.28
2022-12-11T07:06:07.493Z,94.90
2022-12-11T07:08:37.498Z,80.60
2022-12-11T07:11:06.462Z,84.88
2022-12-11T07:13:34.157Z,87.28
2022-12-11T07:16:01.827Z,77.47
2022-12-11T07:18:29.222Z,77.63
2022-12-11T07:20:59.012Z,77.72
2022-12-11T07:23:28.566Z,75.60
2022-12-11T07:25:55.719Z,73.30
2022-12-11T07:28:23.110Z,66.03
2022-12-11T07:30:50.012Z,63.33
2022-12-11T07:33:17.412Z,66.10
2022-12-11T07:35:44.588Z,65.93
2022-12-11T07:38:11.915Z,59.65
2022-12-11T07:40:38.515Z,57.72
2022-12-11T07:43:06.578Z,55.90
2022-12-11T07:45:33.202Z,54.42
2022-12-11T07:48:00.541Z,51.05
2022-12-11T07:50:27.233Z,51.20
2022-12-11T07:52:54.685Z,51.28
2022-12-11T07:55:21.349Z,52.35
2022-12-11T07:57:48.276Z,47.92
2022-12-11T08:00:15.960Z,49.17
2022-12-11T08:02:43.137Z,51.10
2022-12-11T08:05:10.866Z,48.40
2022-12-11T08:07:37.860Z,44.88
2022-12-11T08:10:05.652Z,51.80
2022-12-11T08:12:32.235Z,49.20
2022-12-11T08:14:59.577Z,48.40
2022-12-11T08:17:30.863Z,47.67
2022-12-11T08:20:00.123Z,44.78
2022-12-11T08:22:26.725Z,47.13
2022-12-11T08:24:53.994Z,45.55
2022-12-11T08:27:20.565Z,44.53
2022-12-11T08:29:47.804Z,50.67
2022-12-11T08:32:16.621Z,46.17
2022-12-11T08:34:44.471Z,49.97
2022-12-11T08:37:11.118Z,44.78
2022-12-11T08:39:38.392Z,46.15
2022-12-11T08:42:05.118Z,47.90
2022-12-11T08:44:32.388Z,49.38
2022-12-11T08:46:58.954Z,45.70
2022-12-11T08:49:28.675Z,42.60
2022-12-11T08:51:59.354Z,41.42
2022-12-11T08:54:26.251Z,43.75
2022-12-11T08:56:57.715Z,40.65
2022-12-11T08:59:25.948Z,41.97
2022-12-11T09:01:54.048Z,45.85
2022-12-11T09:04:21.423Z,45.22
2022-12-11T09:06:48.412Z,51.03
2022-12-11T09:09:15.696Z,41.58
2022-12-11T09:11:42.645Z,49.00
2022-12-11T09:14:09.925Z,46.88
2022-12-11T09:16:40.248Z,43.38
2022-12-11T09:19:13.408Z,46.35
2022-12-11T09:21:40.560Z,39.15
2022-12-11T09:24:10.682Z,39.63
2022-12-11T09:26:38.504Z,42.65
2022-12-11T09:29:06.500Z,41.88
2022-12-11T09:31:36.293Z,40.42
2022-12-11T09:34:07.257Z,42.38
2022-12-11T09:36:34.886Z,46.55
2022-12-11T09:39:04.134Z,41.70
2022-12-11T09:41:52.908Z,45.08
2022-12-11T09:44:32.705Z,40.65
2022-12-11T09:46:59.521Z,41.97
2022-12-11T09:49:35.389Z,43.15
2022-12-11T09:52:19.190Z,45.45
2022-12-11T09:54:54.735Z,45.35
2022-12-11T09:58:09.079Z,44.50
2022-12-11T10:00:39.180Z,44.50
2022-12-11T10:03:46.007Z,41.75
2022-12-11T10:06:28.250Z,39.53
2022-12-11T10:09:28.325Z,40.58
2022-12-11T10:12:07.700Z,40.90
2022-12-11T10:14:56.814Z,39.08
2022-12-11T10:17:30.220Z,33.20
2022-12-11T10:20:00.301Z,35.90
2022-12-11T10:22:31.187Z,37.13
2022-12-11T10:25:12.158Z,39.08
2022-12-11T10:27:40.469Z,33.88
2022-12-11T10:30:13.464Z,41.92
2022-12-11T10:33:11.530Z,38.22
2022-12-11T10:35:44.460Z,36.97
2022-12-11T10:38:21.248Z,27.98
2022-12-11T10:40:53.089Z,28.45
2022-12-11T10:43:19.933Z,32.70
2022-12-11T10:45:53.945Z,32.50
2022-12-11T10:48:21.109Z,31.90
2022-12-11T10:50:58.647Z,31.23
2022-12-11T10:53:26.591Z,44.58
2022-12-11T10:55:54.161Z,41.85
2022-12-11T10:58:24.069Z,39.33
2022-12-11T11:01:05.635Z,40.28
2022-12-11T11:03:33.357Z,31.45
2022-12-11T11:06:17.097Z,36.97
2022-12-11T11:08:49.918Z,36.22
2022-12-11T11:11:33.797Z,32.58
2022-12-11T11:14:16.687Z,35.30
2022-12-11T11:16:46.298Z,37.42
2022-12-11T11:19:39.444Z,36.72
2022-12-11T11:22:18.654Z,37.15
2022-12-11T11:24:57.507Z,37.58
2022-12-11T11:27:28.611Z,37.65
2022-12-11T11:30:00.194Z,38.17
2022-12-11T11:32:40.090Z,40.20
2022-12-11T11:35:13.286Z,40.30
2022-12-11T11:37:44.648Z,39.05
2022-12-11T11:40:26.919Z,39.45
2022-12-11T11:43:16.955Z,38.30
2022-12-11T11:45:55.504Z,37.83
2022-12-11T11:48:44.181Z,35.70
2022-12-11T11:51:21.205Z,42.97
2022-12-11T11:53:51.000Z,39.47
2022-12-11T11:56:25.988Z,45.42
2022-12-11T11:59:03.324Z,37.33
2022-12-11T12:01:30.715Z,38.05
2022-12-11T12:03:58.401Z,43.25
2022-12-11T12:06:48.980Z,38.95
2022-12-11T12:09:37.560Z,42.00
2022-12-11T12:12:39.019Z,35.40
2022-12-11T12:15:50.123Z,37.88
2022-12-11T12:18:17.326Z,43.45
2022-12-11T12:21:10.029Z,37.90
2022-12-11T12:24:01.287Z,42.08
2022-12-11T12:26:30.850Z,37.55
2022-12-11T12:29:13.510Z,41.05
2022-12-11T12:31:49.261Z,42.63
2022-12-11T12:34:25.676Z,35.50
2022-12-11T12:37:00.553Z,38.88
2022-12-11T12:40:02.073Z,39.20
2022-12-11T12:42:46.328Z,39.05
2022-12-11T12:45:16.043Z,91.35
2022-12-11T12:47:50.418Z,66.90
2022-12-11T12:50:23.565Z,36.45
2022-12-11T12:52:52.398Z,51.83
2022-12-11T12:55:25.779Z,56.70
2022-12-11T12:58:06.344Z,38.80
2022-12-11T13:00:43.555Z,47.05
2022-12-11T13:03:18.047Z,38.60
2022-12-11T13:08:34.829Z,37.35
2022-12-11T13:11:08.216Z,36.00
2022-12-11T13:13:41.973Z,38.03
2022-12-11T13:16:17.548Z,34.60
2022-12-11T13:18:48.480Z,40.92
2022-12-11T13:21:34.828Z,326.10
2022-12-11T13:24:25.910Z,40.88
2022-12-11T13:26:53.236Z,43.30
2022-12-11T13:29:30.340Z,43.55
2022-12-11T13:32:24.586Z,41.67
2022-12-11T13:35:00.097Z,42.47
2022-12-11T13:37:34.995Z,43.78
2022-12-11T13:40:06.966Z,41.17
2022-12-11T13:42:48.175Z,40.92
2022-12-11T13:45:29.436Z,46.10
2022-12-11T13:47:58.721Z,43.35
2022-12-11T13:50:29.749Z,35.13
2022-12-11T13:53:01.776Z,42.90
2022-12-11T13:55:34.108Z,75.35
2022-12-11T13:58:01.305Z,102.80
2022-12-11T14:00:32.539Z,77.30
2022-12-11T14:03:05.142Z,65.95
2022-12-11T14:08:09.118Z,36.85
2022-12-11T14:10:36.918Z,42.17
2022-12-11T14:13:05.638Z,29.98
2022-12-11T14:15:34.951Z,31.27
2022-12-11T14:18:03.970Z,30.95
2022-12-11T14:20:33.583Z,29.40
2022-12-11T14:23:15.555Z,30.10
2022-12-11T14:25:42.216Z,36.20
2022-12-11T14:28:17.071Z,24.88
2022-12-11T14:30:49.072Z,30.85
2022-12-11T14:33:17.736Z,37.10
2022-12-11T14:35:46.516Z,28.90
2022-12-11T14:38:27.125Z,35.92
2022-12-11T14:40:58.124Z,31.70
2022-12-11T14:43:37.524Z,33.55
2022-12-11T14:46:13.737Z,34.13
2022-12-11T14:48:49.762Z,32.83
2022-12-11T14:51:18.663Z,30.88
2022-12-11T14:53:48.620Z,36.67
2022-12-11T14:56:21.588Z,43.40
2022-12-11T14:58:56.824Z,28.92
2022-12-11T15:01:35.070Z,30.50
2022-12-11T15:04:04.433Z,31.33
2022-12-11T15:06:34.431Z,28.95
2022-12-11T15:09:24.996Z,40.97
2022-12-11T15:11:53.898Z,30.48
2022-12-11T15:14:22.426Z,33.65
2022-12-11T15:16:50.420Z,32.83
2022-12-11T15:19:25.509Z,38.05
2022-12-11T15:21:53.057Z,41.28
2022-12-11T15:24:42.072Z,47.63
2022-12-11T15:27:31.811Z,40.20
2022-12-11T15:29:59.064Z,44.17
2022-12-11T15:32:26.164Z,39.28
2022-12-11T15:34:59.472Z,38.78
2022-12-11T15:37:31.902Z,31.48
2022-12-11T15:40:01.259Z,31.77
2022-12-11T15:42:37.161Z,35.25
2022-12-11T15:45:08.169Z,33.55
2022-12-11T15:47:34.850Z,30.45
2022-12-11T15:50:29.249Z,32.13
2022-12-11T15:52:56.930Z,30.48
2022-12-11T15:55:27.123Z,29.92
2022-12-11T15:58:02.854Z,34.05
2022-12-11T16:00:30.462Z,34.10
2022-12-11T16:02:57.538Z,32.60
2022-12-11T16:05:24.915Z,35.15
2022-12-11T16:07:59.675Z,28.90
2022-12-11T16:10:27.151Z,37.83
2022-12-11T16:12:59.574Z,31.52
2022-12-11T16:15:27.015Z,31.20
2022-12-11T16:18:07.756Z,30.63
2022-12-11T16:20:36.084Z,36.65
2022-12-11T16:23:04.307Z,35.13
2022-12-11T16:25:32.533Z,36.78
2022-12-11T16:28:01.874Z,36.03
2022-12-11T16:30:29.719Z,31.33
2022-12-11T16:32:57.165Z,37.60
2022-12-11T16:35:23.801Z,43.30
2022-12-11T16:37:52.874Z,37.38
2022-12-11T16:40:20.421Z,48.45
2022-12-11T16:42:47.778Z,42.58
2022-12-11T16:45:17.160Z,44.97
2022-12-11T16:47:44.677Z,48.25
2022-12-11T16:50:13.743Z,39.40
2022-12-11T16:52:41.672Z,38.13
2022-12-11T16:55:10.057Z,37.08
2022-12-11T16:57:37.782Z,38.75
2022-12-11T17:00:08.961Z,39.35
2022-12-11T17:02:36.976Z,35.55
2022-12-11T17:05:03.966Z,35.10
2022-12-11T17:07:32.793Z,42.22
2022-12-11T17:10:01.663Z,35.97
2022-12-11T17:12:28.946Z,40.08
2022-12-11T17:14:56.583Z,43.50
2022-12-11T17:17:23.846Z,41.20
2022-12-11T17:19:50.471Z,40.75
2022-12-11T17:22:17.853Z,39.08
2022-12-11T17:24:44.588Z,35.60
2022-12-11T17:27:12.616Z,38.67
2022-12-11T17:29:39.626Z,40.50
2022-12-11T17:32:06.894Z,36.28
2022-12-11T17:34:38.158Z,34.65
2022-12-11T17:37:06.341Z,40.13
2022-12-11T17:39:33.372Z,40.55
2022-12-11T17:42:00.698Z,37.47
2022-12-11T17:44:30.222Z,34.95
2022-12-11T17:47:04.710Z,33.95
2022-12-11T17:49:34.256Z,33.10
2022-12-11T17:52:00.940Z,34.30
2022-12-11T17:54:27.560Z,32.17
2022-12-11T17:56:54.513Z,40.70
2022-12-11T17:59:21.154Z,40.33
2022-12-11T18:01:48.007Z,42.83
2022-12-11T18:04:14.772Z,45.60
2022-12-11T18:06:41.715Z,34.13
2022-12-11T18:09:08.680Z,33.63
2022-12-11T18:11:35.678Z,34.85
2022-12-11T18:14:02.540Z,31.52
2022-12-11T18:16:33.627Z,33.10
2022-12-11T18:19:00.630Z,47.05
2022-12-11T18:21:30.048Z,39.30
2022-12-11T18:23:56.864Z,47.40
2022-12-11T18:26:24.076Z,54.00
2022-12-11T18:28:51.947Z,55.72
2022-12-11T18:31:20.442Z,65.32
2022-12-11T18:33:47.502Z,66.93
2022-12-11T18:36:17.033Z,42.13
2022-12-11T18:38:44.366Z,36.17
2022-12-11T18:41:13.309Z,32.45
2022-12-11T18:43:40.449Z,32.63
2022-12-11T18:46:09.772Z,38.17
2022-12-11T18:48:36.459Z,33.72
2022-12-11T18:51:08.645Z,35.85
2022-12-11T18:53:36.649Z,40.58
2022-12-11T18:56:10.264Z,40.30
2022-12-11T18:58:37.238Z,34.15
2022-12-11T19:01:15.767Z,32.67
2022-12-11T19:03:44.060Z,34.38
2022-12-11T19:06:16.941Z,33.38
2022-12-11T19:08:45.001Z,36.40
2022-12-11T19:11:17.601Z,33.38
2022-12-11T19:13:44.613Z,36.05
2022-12-11T19:16:26.953Z,37.85
2022-12-11T19:18:53.994Z,36.47
2022-12-11T19:21:21.415Z,33.63
2022-12-11T19:23:48.315Z,40.63
2022-12-11T19:26:18.503Z,39.58
2022-12-11T19:28:46.128Z,38.53
2022-12-11T19:31:16.211Z,35.13
2022-12-11T19:33:43.855Z,36.03
2022-12-11T19:36:13.794Z,38.95
2022-12-11T19:38:42.417Z,39.25
2022-12-11T19:41:18.370Z,34.30
2022-12-11T19:43:45.119Z,34.38
2022-12-11T19:46:13.812Z,38.45
2022-12-11T19:48:41.591Z,36.85
2022-12-11T19:51:13.436Z,37.92
2022-12-11T19:53:41.152Z,38.28
2022-12-11T19:56:11.224Z,37.25
2022-12-11T19:58:38.344Z,34.72
2022-12-11T20:01:05.986Z,35.42
2022-12-11T20:03:33.193Z,39.97
2022-12-11T20:06:06.957Z,35.58
2022-12-11T20:08:49.491Z,35.90
2022-12-11T20:11:18.676Z,38.55
2022-12-11T20:13:49.433Z,40.30
2022-12-11T20:16:17.266Z,43.53
2022-12-11T20:18:44.283Z,43.85
2022-12-11T20:21:16.689Z,103.53
2022-12-11T20:23:44.229Z,105.82
2022-12-11T20:26:14.470Z,83.60
2022-12-11T20:28:43.213Z,82.10
2022-12-11T20:31:20.162Z,56.03
2022-12-11T20:33:49.151Z,67.75
2022-12-11T20:36:18.565Z,50.55
2022-12-11T20:38:45.233Z,54.60
2022-12-11T20:41:13.996Z,52.45
2022-12-11T20:43:40.849Z,49.72
2022-12-11T20:46:09.657Z,48.65
2022-12-11T20:48:38.992Z,48.65
2022-12-11T20:51:08.492Z,49.47
2022-12-11T20:53:35.866Z,62.50
2022-12-11T20:56:17.132Z,65.15
2022-12-11T20:58:44.672Z,63.95
2022-12-11T21:01:20.231Z,55.08
2022-12-11T21:03:47.322Z,54.53
2022-12-11T21:06:23.097Z,52.50
2022-12-11T21:08:49.724Z,52.22
2022-12-11T21:11:18.306Z,49.58
2022-12-11T21:13:45.035Z,54.75
2022-12-11T21:16:12.633Z,47.72
2022-12-11T21:18:39.807Z,56.80
2022-12-11T21:21:07.143Z,53.05
2022-12-11T21:23:34.128Z,50.17
2022-12-11T21:26:00.920Z,48.67
2022-12-11T21:28:33.507Z,45.63
2022-12-11T21:31:04.115Z,51.55
2022-12-11T21:33:31.595Z,52.35
2022-12-11T21:35:59.939Z,46.85
2022-12-11T21:38:28.118Z,51.53
2022-12-11T21:40:55.275Z,81.07
2022-12-11T21:43:23.371Z,73.85
2022-12-11T21:46:06.126Z,64.80
2022-12-11T21:51:15.292Z,58.55
2022-12-11T21:53:43.492Z,37.97
2022-12-11T21:56:13.203Z,55.30
2022-12-11T21:58:42.355Z,55.10
2022-12-11T22:01:34.873Z,56.35
2022-12-11T22:04:03.727Z,58.38
2022-12-11T22:06:30.755Z,59.00
2022-12-11T22:08:58.015Z,58.92
2022-12-11T22:11:31.811Z,71.75
2022-12-11T22:13:59.972Z,76.55
2022-12-11T22:16:26.693Z,59.65
2022-12-11T22:18:54.048Z,55.88
2022-12-11T22:21:20.945Z,52.35
2022-12-11T22:23:48.344Z,49.35
2022-12-11T22:26:18.776Z,54.15
2022-12-11T22:28:46.148Z,57.15
2022-12-11T22:31:14.431Z,52.63
2022-12-11T22:33:41.881Z,61.75
2022-12-11T22:36:10.022Z,67.47
2022-12-11T22:38:37.481Z,70.32
2022-12-11T22:41:42.157Z,61.63
2022-12-11T22:44:18.231Z,57.38
2022-12-11T22:46:49.638Z,62.63
2022-12-11T22:49:18.309Z,54.00
2022-12-11T22:51:45.618Z,58.85
2022-12-11T22:54:12.325Z,56.72
2022-12-11T22:56:39.258Z,62.55
2022-12-11T22:59:07.709Z,55.63
2022-12-11T23:01:34.466Z,59.47
2022-12-11T23:04:01.504Z,58.72
2022-12-11T23:06:28.191Z,56.58
2022-12-11T23:08:59.413Z,55.33
2022-12-11T23:11:36.597Z,59.13
2022-12-11T23:14:10.578Z,60.20
2022-12-11T23:16:38.106Z,58.20
2022-12-11T23:19:04.886Z,54.28
2022-12-11T23:21:33.056Z,60.05
2022-12-11T23:24:00.466Z,60.28
2022-12-11T23:26:28.742Z,55.42
2022-12-11T23:28:57.023Z,59.17
2022-12-11T23:31:25.087Z,57.47
2022-12-11T23:33:52.363Z,55.50
2022-12-11T23:36:19.632Z,58.55
2022-12-11T23:38:50.940Z,49.75
2022-12-11T23:41:21.591Z,55.15
2022-12-11T23:43:48.444Z,58.17
2022-12-11T23:46:20.252Z,56.40
2022-12-11T23:48:46.912Z,65.28
2022-12-11T23:51:16.463Z,59.08
2022-12-11T23:53:43.768Z,64.68
2022-12-11T23:56:18.630Z,63.55
2022-12-11T23:58:45.355Z,54.70
